createdAt,value
2022-11-29T00:00:15.992Z,84.24
2022-11-29T00:01:14.529Z,84.35
2022-11-29T00:01:47.879Z,84.27
2022-11-29T00:02:21.547Z,84.36
2022-11-29T00:02:55.630Z,84.32
2022-11-29T00:03:30.177Z,84.50
2022-11-29T00:04:04.420Z,84.15
2022-11-29T00:04:38.101Z,84.15
2022-11-29T00:05:11.617Z,84.10
2022-11-29T00:05:46.377Z,83.98
2022-11-29T00:06:23.731Z,84.24
2022-11-29T00:06:57.291Z,84.20
2022-11-29T00:07:30.751Z,84.18
2022-11-29T00:08:04.388Z,83.91
2022-11-29T00:08:37.732Z,83.98
2022-11-29T00:09:13.694Z,84.05
2022-11-29T00:09:47.134Z,83.97
2022-11-29T00:10:21.018Z,84.12
2022-11-29T00:10:54.441Z,84.04
2022-11-29T00:11:49.167Z,84.14
2022-11-29T00:12:22.603Z,83.99
2022-11-29T00:12:55.839Z,84.14
2022-11-29T00:13:29.368Z,84.01
2022-11-29T00:14:03.422Z,83.90
2022-11-29T00:14:37.003Z,84.03
2022-11-29T00:15:10.410Z,84.15
2022-11-29T00:15:43.856Z,84.07
2022-11-29T00:16:17.484Z,83.81
2022-11-29T00:16:53.745Z,84.09
2022-11-29T00:17:27.343Z,83.86
2022-11-29T00:18:00.585Z,84.03
2022-11-29T00:18:34.485Z,83.85
2022-11-29T00:19:09.184Z,83.95
2022-11-29T00:19:42.885Z,83.86
2022-11-29T00:20:16.206Z,83.84
2022-11-29T00:20:49.728Z,84.08
2022-11-29T00:21:23.127Z,83.87
2022-11-29T00:21:56.725Z,83.74
2022-11-29T00:22:30.439Z,83.79
2022-11-29T00:23:03.842Z,83.64
2022-11-29T00:23:37.094Z,83.69
2022-11-29T00:24:10.657Z,83.49
2022-11-29T00:24:44.406Z,83.45
2022-11-29T00:25:18.125Z,83.41
2022-11-29T00:25:52.117Z,83.29
2022-11-29T00:26:26.013Z,83.26
2022-11-29T00:27:00.731Z,83.26
2022-11-29T00:27:34.102Z,83.44
2022-11-29T00:28:07.404Z,83.37
2022-11-29T00:28:42.755Z,83.58
2022-11-29T00:29:16.133Z,83.66
2022-11-29T00:29:49.368Z,83.60
2022-11-29T00:30:23.102Z,83.76
2022-11-29T00:30:57.038Z,83.53
2022-11-29T00:31:32.817Z,83.56
2022-11-29T00:32:06.191Z,83.88
2022-11-29T00:32:39.510Z,83.86
2022-11-29T00:33:12.843Z,83.83
2022-11-29T00:33:50.307Z,83.69
2022-11-29T00:34:23.678Z,83.90
2022-11-29T00:34:59.501Z,83.99
2022-11-29T00:35:33.240Z,84.07
2022-11-29T00:36:07.024Z,84.08
2022-11-29T00:36:41.286Z,83.95
2022-11-29T00:37:15.787Z,84.16
2022-11-29T00:37:49.053Z,84.01
2022-11-29T00:38:22.431Z,84.00
2022-11-29T00:38:56.036Z,84.10
2022-11-29T00:39:29.403Z,84.15
2022-11-29T00:40:04.073Z,84.18
2022-11-29T00:40:37.488Z,84.15
2022-11-29T00:41:12.075Z,84.13
2022-11-29T00:41:45.954Z,84.08
2022-11-29T00:42:20.948Z,84.24
2022-11-29T00:42:54.881Z,83.96
2022-11-29T00:43:28.462Z,83.93
2022-11-29T00:44:01.950Z,84.05
2022-11-29T00:44:35.379Z,84.01
2022-11-29T00:45:09.718Z,84.03
2022-11-29T00:45:43.729Z,84.12
2022-11-29T00:46:17.434Z,83.93
2022-11-29T00:46:50.843Z,84.05
2022-11-29T00:47:24.493Z,84.16
2022-11-29T00:47:57.994Z,84.06
2022-11-29T00:48:31.342Z,84.00
2022-11-29T00:49:05.085Z,83.88
2022-11-29T00:49:38.417Z,84.22
2022-11-29T00:50:11.988Z,84.08
2022-11-29T00:50:45.485Z,84.13
2022-11-29T00:51:19.600Z,84.27
2022-11-29T00:51:53.213Z,84.24
2022-11-29T00:52:26.558Z,84.14
2022-11-29T00:53:00.010Z,84.25
2022-11-29T00:53:35.283Z,84.20
2022-11-29T00:54:08.986Z,84.12
2022-11-29T00:54:42.608Z,84.03
2022-11-29T00:55:17.957Z,84.27
2022-11-29T00:55:52.964Z,83.99
2022-11-29T00:56:26.383Z,84.30
2022-11-29T00:56:59.826Z,84.16
2022-11-29T00:57:33.082Z,84.22
2022-11-29T00:58:06.646Z,84.00
2022-11-29T00:58:40.238Z,84.05
2022-11-29T00:59:13.503Z,84.07
2022-11-29T00:59:46.892Z,83.82
2022-11-29T01:00:20.763Z,83.95
2022-11-29T01:00:54.887Z,83.98
2022-11-29T01:01:28.641Z,84.05
2022-11-29T01:02:02.274Z,84.01
2022-11-29T01:02:35.748Z,83.85
2022-11-29T01:03:09.510Z,83.93
2022-11-29T01:03:43.301Z,83.87
2022-11-29T01:04:17.048Z,83.77
2022-11-29T01:04:50.265Z,84.05
2022-11-29T01:05:24.270Z,83.95
2022-11-29T01:06:06.069Z,84.18
2022-11-29T01:06:39.692Z,84.23
2022-11-29T01:07:13.333Z,84.30
2022-11-29T01:07:46.828Z,84.23
2022-11-29T01:08:20.292Z,84.29
2022-11-29T01:08:54.223Z,84.07
2022-11-29T01:09:27.481Z,84.24
2022-11-29T01:10:01.121Z,84.12
2022-11-29T01:10:34.723Z,84.44
2022-11-29T01:11:16.023Z,84.34
2022-11-29T01:11:50.145Z,84.36
2022-11-29T01:12:23.451Z,84.57
2022-11-29T01:12:56.651Z,84.40
2022-11-29T01:13:30.122Z,84.41
2022-11-29T01:14:04.362Z,84.20
2022-11-29T01:14:37.720Z,84.43
2022-11-29T01:15:11.473Z,84.53
2022-11-29T01:15:45.298Z,84.55
2022-11-29T01:16:19.150Z,84.40
2022-11-29T01:16:52.555Z,84.55
2022-11-29T01:17:29.229Z,84.48
2022-11-29T01:18:02.634Z,84.52
2022-11-29T01:18:37.219Z,84.54
2022-11-29T01:19:12.855Z,84.41
2022-11-29T01:19:50.649Z,84.39
2022-11-29T01:20:24.758Z,84.16
2022-11-29T01:21:09.763Z,84.18
2022-11-29T01:21:42.994Z,84.26
2022-11-29T01:22:16.358Z,84.10
2022-11-29T01:22:49.791Z,84.39
2022-11-29T01:23:23.154Z,84.43
2022-11-29T01:23:57.027Z,84.43
2022-11-29T01:24:31.359Z,84.44
2022-11-29T01:25:07.331Z,84.48
2022-11-29T01:25:41.326Z,84.58
2022-11-29T01:26:18.574Z,84.47
2022-11-29T01:26:52.526Z,84.56
2022-11-29T01:27:26.322Z,84.41
2022-11-29T01:28:00.707Z,84.52
2022-11-29T01:28:35.015Z,84.84
2022-11-29T01:29:08.428Z,84.79
2022-11-29T01:29:42.006Z,85.13
2022-11-29T01:30:16.036Z,85.02
2022-11-29T01:30:49.485Z,85.21
2022-11-29T01:31:28.646Z,85.21
2022-11-29T01:32:02.243Z,85.19
2022-11-29T01:32:39.076Z,85.31
2022-11-29T01:33:12.483Z,85.23
2022-11-29T01:33:46.032Z,85.14
2022-11-29T01:34:19.357Z,85.11
2022-11-29T01:34:52.608Z,85.20
2022-11-29T01:35:25.899Z,85.33
2022-11-29T01:35:59.380Z,85.29
2022-11-29T01:36:33.303Z,85.58
2022-11-29T01:37:06.737Z,85.35
2022-11-29T01:37:40.230Z,85.27
2022-11-29T01:38:13.605Z,85.40
2022-11-29T01:38:46.826Z,85.47
2022-11-29T01:39:20.041Z,85.31
2022-11-29T01:39:53.286Z,85.26
2022-11-29T01:40:26.575Z,85.42
2022-11-29T01:41:07.132Z,85.33
2022-11-29T01:41:40.276Z,85.43
2022-11-29T01:42:14.358Z,85.28
2022-11-29T01:42:47.864Z,85.40
2022-11-29T01:43:21.555Z,85.25
2022-11-29T01:44:26.973Z,85.25
2022-11-29T01:45:04.882Z,85.22
2022-11-29T01:45:40.602Z,85.41
2022-11-29T01:46:13.857Z,85.30
2022-11-29T01:46:49.348Z,85.24
2022-11-29T01:47:23.999Z,85.07
2022-11-29T01:47:58.129Z,85.42
2022-11-29T01:48:32.886Z,85.27
2022-11-29T01:49:14.159Z,85.27
2022-11-29T01:49:49.483Z,85.18
2022-11-29T01:50:23.038Z,85.37
2022-11-29T01:51:00.910Z,85.27
2022-11-29T01:51:36.159Z,85.47
2022-11-29T01:52:19.804Z,85.32
2022-11-29T01:52:53.553Z,85.16
2022-11-29T01:53:28.107Z,85.12
2022-11-29T01:54:02.282Z,85.09
2022-11-29T01:54:40.258Z,85.42
2022-11-29T01:55:14.533Z,85.18
2022-11-29T01:55:53.639Z,85.30
2022-11-29T01:56:29.493Z,85.26
2022-11-29T01:57:05.740Z,85.43
2022-11-29T01:57:41.218Z,85.24
2022-11-29T01:58:15.533Z,85.11
2022-11-29T01:58:49.191Z,85.08
2022-11-29T01:59:25.903Z,85.24
2022-11-29T02:00:07.622Z,85.11
2022-11-29T02:00:46.605Z,85.27
2022-11-29T02:01:20.207Z,85.15
2022-11-29T02:02:00.696Z,85.27
2022-11-29T02:02:42.876Z,85.28
2022-11-29T02:03:18.113Z,85.18
2022-11-29T02:03:51.379Z,85.24
2022-11-29T02:04:24.644Z,85.19
2022-11-29T02:04:59.624Z,84.96
2022-11-29T02:05:33.498Z,85.38
2022-11-29T02:06:08.141Z,85.03
2022-11-29T02:06:42.097Z,85.00
2022-11-29T02:07:15.842Z,85.05
2022-11-29T02:07:52.783Z,85.20
2022-11-29T02:08:33.663Z,85.22
2022-11-29T02:09:19.901Z,85.02
2022-11-29T02:09:53.102Z,84.89
2022-11-29T02:10:41.047Z,84.91
2022-11-29T02:11:29.771Z,85.22
2022-11-29T02:12:21.792Z,85.03
2022-11-29T02:13:18.007Z,85.02
2022-11-29T02:13:56.863Z,84.94
2022-11-29T02:14:57.699Z,85.05
2022-11-29T02:15:43.699Z,85.05
2022-11-29T02:16:43.642Z,85.12
2022-11-29T02:18:07.745Z,85.18
2022-11-29T02:18:47.300Z,85.15
2022-11-29T02:19:38.010Z,85.00
2022-11-29T02:20:23.213Z,85.12
2022-11-29T02:21:05.528Z,85.12
2022-11-29T02:21:47.528Z,85.04
2022-11-29T02:22:58.498Z,85.07
2022-11-29T02:23:43.618Z,85.18
2022-11-29T02:24:25.750Z,85.00
2022-11-29T02:25:07.589Z,85.26
2022-11-29T02:26:01.852Z,85.26
2022-11-29T02:26:35.388Z,85.31
2022-11-29T02:27:17.183Z,85.45
2022-11-29T02:28:30.288Z,85.24
2022-11-29T02:29:21.923Z,85.35
2022-11-29T02:30:09.682Z,85.53
2022-11-29T02:30:45.966Z,85.40
2022-11-29T02:31:47.026Z,85.32
2022-11-29T02:32:41.500Z,85.39
2022-11-29T02:33:39.307Z,85.69
2022-11-29T02:34:18.522Z,85.81
2022-11-29T02:35:18.700Z,85.77
2022-11-29T02:36:00.929Z,85.64
2022-11-29T02:36:51.485Z,85.79
2022-11-29T02:37:34.433Z,86.05
2022-11-29T02:38:21.972Z,85.88
2022-11-29T02:39:14.434Z,85.97
2022-11-29T02:39:53.505Z,85.90
2022-11-29T02:40:45.204Z,86.11
2022-11-29T02:41:24.347Z,86.00
2022-11-29T02:42:18.838Z,86.03
2022-11-29T02:43:08.028Z,86.13
2022-11-29T02:43:58.078Z,86.22
2022-11-29T02:45:04.008Z,85.99
2022-11-29T02:45:43.173Z,86.02
2022-11-29T02:46:16.727Z,85.96
2022-11-29T02:46:49.956Z,85.78
2022-11-29T02:47:35.119Z,85.92
2022-11-29T02:48:29.789Z,85.91
2022-11-29T02:50:56.371Z,86.10
2022-11-29T02:51:58.058Z,85.87
2022-11-29T02:53:00.314Z,85.85
2022-11-29T02:53:53.413Z,86.13
2022-11-29T02:54:35.722Z,85.99
2022-11-29T02:55:17.749Z,86.03
2022-11-29T02:56:27.555Z,86.06
2022-11-29T02:57:24.578Z,86.08
2022-11-29T02:58:40.956Z,86.12
2022-11-29T02:59:39.249Z,86.15
2022-11-29T03:00:23.409Z,86.35
2022-11-29T03:01:38.718Z,86.21
2022-11-29T03:02:21.560Z,86.24
2022-11-29T03:03:10.839Z,86.39
2022-11-29T03:03:53.598Z,86.20
2022-11-29T03:04:41.202Z,86.14
2022-11-29T03:05:35.041Z,86.12
2022-11-29T03:06:36.894Z,86.22
2022-11-29T03:07:28.730Z,85.96
2022-11-29T03:08:34.320Z,86.19
2022-11-29T03:09:33.323Z,86.58
2022-11-29T03:10:31.237Z,86.40
2022-11-29T03:11:13.576Z,86.65
2022-11-29T03:12:24.564Z,86.65
2022-11-29T03:12:59.339Z,86.45
2022-11-29T03:14:03.505Z,86.64
2022-11-29T03:14:45.623Z,86.53
2022-11-29T03:15:47.793Z,86.42
2022-11-29T03:16:39.707Z,86.58
2022-11-29T03:17:27.833Z,86.55
2022-11-29T03:18:10.290Z,86.31
2022-11-29T03:19:06.054Z,86.34
2022-11-29T03:20:14.542Z,86.51
2022-11-29T03:21:31.695Z,86.45
2022-11-29T03:22:05.334Z,86.58
2022-11-29T03:23:00.062Z,86.69
2022-11-29T03:23:43.588Z,86.37
2022-11-29T03:24:28.356Z,86.37
2022-11-29T03:25:05.539Z,86.68
2022-11-29T03:26:05.131Z,86.58
2022-11-29T03:26:51.739Z,86.38
2022-11-29T03:27:52.710Z,86.20
2022-11-29T03:28:48.559Z,86.42
2022-11-29T03:29:30.178Z,86.58
2022-11-29T03:30:07.316Z,86.51
2022-11-29T03:30:46.240Z,86.56
2022-11-29T03:31:29.987Z,86.20
2022-11-29T03:32:15.933Z,86.31
2022-11-29T03:32:52.012Z,86.55
2022-11-29T03:33:43.871Z,86.45
2022-11-29T03:34:19.964Z,86.47
2022-11-29T03:35:05.672Z,86.39
2022-11-29T03:36:02.151Z,86.35
2022-11-29T03:36:59.384Z,86.32
2022-11-29T03:37:55.687Z,86.32
2022-11-29T03:38:46.485Z,86.42
2022-11-29T03:39:49.887Z,86.31
2022-11-29T03:40:49.041Z,86.35
2022-11-29T03:41:40.816Z,86.21
2022-11-29T03:42:39.929Z,86.35
2022-11-29T03:43:37.020Z,86.25
2022-11-29T03:44:16.425Z,86.30
2022-11-29T03:44:52.887Z,86.40
2022-11-29T03:45:36.691Z,86.26
2022-11-29T03:46:21.757Z,86.15
2022-11-29T03:47:02.033Z,86.10
2022-11-29T03:48:20.110Z,86.17
2022-11-29T03:49:03.863Z,86.34
2022-11-29T03:49:52.861Z,86.09
2022-11-29T03:50:34.003Z,86.12
2022-11-29T03:51:17.820Z,86.29
2022-11-29T03:52:20.066Z,86.12
2022-11-29T03:53:28.445Z,86.07
2022-11-29T03:54:11.123Z,86.16
2022-11-29T03:55:09.305Z,86.06
2022-11-29T03:55:53.902Z,86.11
2022-11-29T03:56:32.940Z,86.03
2022-11-29T03:57:07.249Z,86.15
2022-11-29T03:57:54.078Z,86.06
2022-11-29T03:58:32.765Z,86.03
2022-11-29T03:59:22.477Z,86.12
2022-11-29T04:00:14.117Z,85.98
2022-11-29T04:00:47.433Z,86.07
2022-11-29T04:01:48.595Z,86.16
2022-11-29T04:02:46.273Z,86.01
2022-11-29T04:03:47.216Z,86.14
2022-11-29T04:04:39.663Z,86.23
2022-11-29T04:05:44.172Z,86.22
2022-11-29T04:06:42.264Z,86.10
2022-11-29T04:07:37.535Z,86.01
2022-11-29T04:08:21.213Z,86.13
2022-11-29T04:09:42.161Z,86.15
2022-11-29T04:10:27.343Z,85.88
2022-11-29T04:11:16.215Z,85.93
2022-11-29T04:12:19.909Z,86.04
2022-11-29T04:13:07.444Z,86.12
2022-11-29T04:14:02.285Z,86.06
2022-11-29T04:15:19.841Z,86.15
2022-11-29T04:15:53.281Z,85.99
2022-11-29T04:16:39.304Z,86.08
2022-11-29T04:17:32.778Z,86.00
2022-11-29T04:18:14.819Z,86.09
2022-11-29T04:19:10.153Z,86.09
2022-11-29T04:20:23.592Z,86.19
2022-11-29T04:21:27.589Z,86.12
2022-11-29T04:22:25.908Z,86.15
2022-11-29T04:23:20.564Z,85.92
2022-11-29T04:24:15.216Z,85.87
2022-11-29T04:24:48.455Z,86.06
2022-11-29T04:25:40.922Z,86.04
2022-11-29T04:26:54.024Z,85.93
2022-11-29T04:27:48.829Z,85.92
2022-11-29T04:28:57.354Z,86.22
2022-11-29T04:29:39.773Z,85.96
2022-11-29T04:30:22.857Z,86.03
2022-11-29T04:31:33.427Z,86.10
2022-11-29T04:32:34.686Z,86.07
2022-11-29T04:33:16.801Z,86.07
2022-11-29T04:34:05.149Z,86.04
2022-11-29T04:34:48.619Z,85.89
2022-11-29T04:35:24.634Z,86.28
2022-11-29T04:36:33.028Z,86.12
2022-11-29T04:37:28.027Z,85.97
2022-11-29T04:38:31.237Z,86.04
2022-11-29T04:39:42.098Z,86.06
2022-11-29T04:41:12.462Z,86.06
2022-11-29T04:41:53.018Z,86.04
2022-11-29T04:42:38.399Z,86.15
2022-11-29T04:43:39.747Z,85.96
2022-11-29T04:44:36.368Z,86.04
2022-11-29T04:45:29.989Z,86.01
2022-11-29T04:46:24.104Z,86.08
2022-11-29T04:47:21.362Z,86.28
2022-11-29T04:47:54.612Z,86.07
2022-11-29T04:48:49.923Z,86.20
2022-11-29T04:49:34.384Z,86.18
2022-11-29T04:50:26.338Z,86.08
2022-11-29T04:51:12.539Z,86.09
2022-11-29T04:52:07.677Z,86.20
2022-11-29T04:53:09.746Z,86.24
2022-11-29T04:54:13.768Z,86.28
2022-11-29T04:55:17.618Z,86.25
2022-11-29T04:56:33.787Z,86.30
2022-11-29T04:57:22.223Z,86.13
2022-11-29T04:58:04.469Z,86.24
2022-11-29T04:59:18.120Z,86.03
2022-11-29T05:00:35.124Z,86.09
2022-11-29T05:01:11.226Z,86.23
2022-11-29T05:01:58.008Z,85.99
2022-11-29T05:02:41.361Z,85.98
2022-11-29T05:03:25.691Z,85.96
2022-11-29T05:04:22.054Z,86.04
2022-11-29T05:05:23.062Z,85.89
2022-11-29T05:06:10.897Z,85.87
2022-11-29T05:07:02.804Z,85.97
2022-11-29T05:07:44.883Z,85.98
2022-11-29T05:08:46.844Z,86.17
2022-11-29T05:09:44.514Z,86.02
2022-11-29T05:10:43.836Z,86.03
2022-11-29T05:11:53.684Z,86.12
2022-11-29T05:12:43.412Z,85.99
2022-11-29T05:13:40.183Z,86.16
2022-11-29T05:14:38.095Z,86.17
2022-11-29T05:15:29.870Z,86.11
2022-11-29T05:16:23.655Z,85.99
2022-11-29T05:17:27.426Z,85.91
2022-11-29T05:18:30.153Z,85.79
2022-11-29T05:19:25.339Z,86.03
2022-11-29T05:20:14.780Z,86.16
2022-11-29T05:21:07.452Z,85.97
2022-11-29T05:21:52.545Z,86.08
2022-11-29T05:23:02.006Z,86.26
2022-11-29T05:23:56.789Z,86.08
2022-11-29T05:24:48.252Z,86.14
2022-11-29T05:25:58.392Z,86.17
2022-11-29T05:26:34.098Z,85.89
2022-11-29T05:27:42.830Z,86.18
2022-11-29T05:28:58.915Z,86.24
2022-11-29T05:29:46.483Z,86.29
2022-11-29T05:30:22.372Z,86.13
2022-11-29T05:31:23.345Z,86.35
2022-11-29T05:32:16.328Z,86.13
2022-11-29T05:32:52.761Z,86.11
2022-11-29T05:33:44.424Z,85.99
2022-11-29T05:34:42.665Z,86.16
2022-11-29T05:35:42.770Z,86.22
2022-11-29T05:36:32.910Z,86.39
2022-11-29T05:37:21.565Z,86.36
2022-11-29T05:38:09.739Z,86.17
2022-11-29T05:38:55.149Z,86.07
2022-11-29T05:39:37.289Z,86.15
2022-11-29T05:40:48.088Z,86.42
2022-11-29T05:41:51.736Z,86.42
2022-11-29T05:42:49.517Z,86.23
2022-11-29T05:43:47.876Z,86.59
2022-11-29T05:44:48.032Z,86.49
2022-11-29T05:45:39.276Z,86.46
2022-11-29T05:46:44.503Z,86.42
2022-11-29T05:47:39.190Z,86.36
2022-11-29T05:48:35.973Z,86.61
2022-11-29T05:49:34.443Z,86.72
2022-11-29T05:50:10.967Z,86.57
2022-11-29T05:50:56.339Z,86.53
2022-11-29T05:51:29.738Z,86.74
2022-11-29T05:52:21.865Z,86.61
2022-11-29T05:53:11.743Z,86.70
2022-11-29T05:54:15.723Z,86.69
2022-11-29T05:55:10.678Z,86.58
2022-11-29T05:56:02.814Z,86.63
2022-11-29T05:57:08.345Z,86.60
2022-11-29T05:57:55.206Z,86.73
2022-11-29T05:58:53.084Z,86.85
2022-11-29T05:59:31.122Z,86.58
2022-11-29T06:00:07.757Z,86.64
2022-11-29T06:01:28.132Z,86.80
2022-11-29T06:02:24.607Z,86.73
2022-11-29T06:03:20.376Z,86.59
2022-11-29T06:04:23.072Z,86.80
2022-11-29T06:05:13.487Z,86.70
2022-11-29T06:05:54.854Z,86.58
2022-11-29T06:06:45.061Z,86.74
2022-11-29T06:07:21.979Z,86.87
2022-11-29T06:08:08.703Z,86.76
2022-11-29T06:09:08.742Z,86.68
2022-11-29T06:09:49.596Z,86.73
2022-11-29T06:10:32.994Z,86.85
2022-11-29T06:11:16.029Z,86.61
2022-11-29T06:12:05.935Z,86.65
2022-11-29T06:12:42.810Z,86.64
2022-11-29T06:13:43.082Z,86.71
2022-11-29T06:14:22.876Z,86.58
2022-11-29T06:15:11.947Z,86.78
2022-11-29T06:16:24.164Z,86.99
2022-11-29T06:17:02.060Z,86.71
2022-11-29T06:17:46.958Z,86.71
2022-11-29T06:18:47.584Z,86.68
2022-11-29T06:19:50.268Z,86.95
2022-11-29T06:20:35.462Z,86.91
2022-11-29T06:21:23.513Z,86.87
2022-11-29T06:22:29.707Z,86.99
2022-11-29T06:23:25.260Z,86.69
2022-11-29T06:24:27.852Z,86.85
2022-11-29T06:25:17.741Z,86.77
2022-11-29T06:26:30.098Z,86.70
2022-11-29T06:27:09.902Z,86.89
2022-11-29T06:28:07.896Z,86.82
2022-11-29T06:28:55.628Z,86.83
2022-11-29T06:29:33.158Z,86.91
2022-11-29T06:30:13.573Z,86.71
2022-11-29T06:30:53.565Z,86.78
2022-11-29T06:31:38.551Z,86.79
2022-11-29T06:32:29.884Z,86.70
2022-11-29T06:33:27.486Z,86.90
2022-11-29T06:34:27.602Z,86.86
2022-11-29T06:35:12.413Z,86.78
2022-11-29T06:35:51.457Z,86.81
2022-11-29T06:36:47.858Z,86.77
2022-11-29T06:37:32.013Z,86.79
2022-11-29T06:38:17.105Z,86.93
2022-11-29T06:38:50.644Z,86.84
2022-11-29T06:39:24.245Z,86.82
2022-11-29T06:39:57.681Z,86.80
2022-11-29T06:40:31.246Z,86.95
2022-11-29T06:41:04.788Z,86.79
2022-11-29T06:41:38.435Z,86.78
2022-11-29T06:42:11.869Z,86.53
2022-11-29T06:42:45.149Z,86.85
2022-11-29T06:43:18.706Z,86.50
2022-11-29T06:43:52.446Z,86.74
2022-11-29T06:44:26.220Z,86.56
2022-11-29T06:44:59.688Z,86.64
2022-11-29T06:45:33.323Z,86.78
2022-11-29T06:46:35.224Z,86.82
2022-11-29T06:47:29.178Z,86.62
2022-11-29T06:48:05.664Z,86.59
2022-11-29T06:49:07.953Z,86.70
2022-11-29T06:50:24.578Z,86.54
2022-11-29T06:51:06.507Z,86.75
2022-11-29T06:52:02.431Z,86.49
2022-11-29T06:52:46.383Z,86.67
2022-11-29T06:53:25.488Z,86.45
2022-11-29T06:54:12.391Z,86.28
2022-11-29T06:54:57.651Z,86.63
2022-11-29T06:55:31.162Z,86.59
2022-11-29T06:56:29.983Z,86.57
2022-11-29T06:57:26.832Z,86.50
2022-11-29T06:58:21.508Z,86.61
2022-11-29T06:59:30.804Z,86.56
2022-11-29T07:00:14.998Z,86.65
2022-11-29T07:01:00.112Z,86.57
2022-11-29T07:01:42.263Z,86.66
2022-11-29T07:02:46.974Z,86.59
2022-11-29T07:03:35.658Z,86.60
2022-11-29T07:04:23.965Z,86.45
2022-11-29T07:05:14.507Z,86.54
2022-11-29T07:05:47.998Z,86.48
2022-11-29T07:06:25.216Z,86.25
2022-11-29T07:06:58.903Z,86.47
2022-11-29T07:07:34.848Z,86.43
2022-11-29T07:08:19.191Z,86.29
2022-11-29T07:09:00.707Z,86.37
2022-11-29T07:09:35.750Z,86.26
2022-11-29T07:10:18.473Z,86.43
2022-11-29T07:10:55.057Z,86.34
2022-11-29T07:11:28.787Z,86.59
2022-11-29T07:12:02.586Z,86.59
2022-11-29T07:12:36.238Z,86.49
2022-11-29T07:13:13.543Z,86.42
2022-11-29T07:13:47.228Z,86.31
2022-11-29T07:14:20.789Z,86.50
2022-11-29T07:14:54.547Z,86.51
2022-11-29T07:15:28.375Z,86.22
2022-11-29T07:16:04.715Z,86.37
2022-11-29T07:16:59.025Z,86.20
2022-11-29T07:18:09.524Z,86.23
2022-11-29T07:18:55.193Z,86.30
2022-11-29T07:20:20.444Z,86.41
2022-11-29T07:21:14.288Z,86.60
2022-11-29T07:22:24.785Z,86.34
2022-11-29T07:23:07.221Z,86.29
2022-11-29T07:24:01.549Z,86.36
2022-11-29T07:24:59.384Z,86.45
2022-11-29T07:25:45.645Z,86.29
2022-11-29T07:26:29.708Z,86.16
2022-11-29T07:27:45.057Z,86.42
2022-11-29T07:28:36.378Z,86.43
2022-11-29T07:29:43.344Z,86.44
2022-11-29T07:30:34.975Z,86.46
2022-11-29T07:31:11.144Z,86.52
2022-11-29T07:32:03.278Z,86.49
2022-11-29T07:33:03.766Z,86.63
2022-11-29T07:34:00.524Z,86.41
2022-11-29T07:35:04.879Z,86.41
2022-11-29T07:36:12.685Z,86.48
2022-11-29T07:37:27.748Z,86.60
2022-11-29T07:38:06.727Z,86.83
2022-11-29T07:39:11.124Z,86.70
2022-11-29T07:40:07.008Z,86.95
2022-11-29T07:40:42.938Z,86.90
2022-11-29T07:41:25.232Z,86.84
2022-11-29T07:42:37.585Z,86.61
2022-11-29T07:43:28.980Z,86.70
2022-11-29T07:44:02.107Z,86.85
2022-11-29T07:44:49.169Z,87.02
2022-11-29T07:45:28.522Z,87.03
2022-11-29T07:46:02.093Z,86.83
2022-11-29T07:46:35.670Z,86.86
2022-11-29T07:47:09.262Z,86.78
2022-11-29T07:47:42.429Z,86.79
2022-11-29T07:48:18.273Z,87.02
2022-11-29T07:48:51.855Z,86.73
2022-11-29T07:49:25.368Z,86.64
2022-11-29T07:49:58.554Z,86.55
2022-11-29T07:50:32.239Z,86.74
2022-11-29T07:51:06.003Z,86.56
2022-11-29T07:51:39.492Z,86.84
2022-11-29T07:52:16.715Z,86.75
2022-11-29T07:52:50.175Z,86.70
2022-11-29T07:53:24.233Z,86.47
2022-11-29T07:53:57.536Z,86.64
2022-11-29T07:54:31.159Z,86.49
2022-11-29T07:55:05.348Z,86.49
2022-11-29T07:55:38.680Z,86.64
2022-11-29T07:56:16.543Z,86.65
2022-11-29T07:56:49.887Z,86.64
2022-11-29T07:57:23.159Z,86.48
2022-11-29T07:57:56.995Z,86.71
2022-11-29T07:58:30.274Z,86.50
2022-11-29T07:59:03.762Z,86.37
2022-11-29T07:59:37.143Z,86.53
2022-11-29T08:00:11.431Z,86.49
2022-11-29T08:00:47.570Z,86.45
2022-11-29T08:01:20.948Z,86.59
2022-11-29T08:01:55.390Z,86.51
2022-11-29T08:02:30.452Z,86.35
2022-11-29T08:03:05.184Z,86.43
2022-11-29T08:03:38.440Z,86.24
2022-11-29T08:04:11.800Z,86.27
2022-11-29T08:04:45.353Z,86.28
2022-11-29T08:05:19.380Z,86.37
2022-11-29T08:05:52.930Z,86.42
2022-11-29T08:06:26.816Z,86.28
2022-11-29T08:07:01.272Z,86.28
2022-11-29T08:07:37.005Z,86.34
2022-11-29T08:08:10.513Z,86.44
2022-11-29T08:08:44.338Z,86.17
2022-11-29T08:09:18.248Z,86.13
2022-11-29T08:09:51.638Z,86.37
2022-11-29T08:10:25.253Z,86.35
2022-11-29T08:10:58.474Z,86.47
2022-11-29T08:11:31.816Z,86.27
2022-11-29T08:12:05.498Z,86.14
2022-11-29T08:12:46.840Z,86.25
2022-11-29T08:13:21.176Z,86.20
2022-11-29T08:14:02.365Z,86.13
2022-11-29T08:14:35.577Z,86.15
2022-11-29T08:15:09.874Z,86.08
2022-11-29T08:15:47.138Z,86.20
2022-11-29T08:16:20.440Z,86.08
2022-11-29T08:16:53.874Z,86.36
2022-11-29T08:17:27.280Z,86.00
2022-11-29T08:18:02.386Z,86.13
2022-11-29T08:18:38.334Z,86.13
2022-11-29T08:19:11.533Z,86.06
2022-11-29T08:19:45.386Z,86.04
2022-11-29T08:20:18.848Z,86.06
2022-11-29T08:20:52.047Z,85.90
2022-11-29T08:21:25.343Z,85.89
2022-11-29T08:21:59.216Z,85.91
2022-11-29T08:22:32.493Z,86.03
2022-11-29T08:23:05.639Z,85.83
2022-11-29T08:23:38.804Z,86.17
2022-11-29T08:24:12.146Z,85.79
2022-11-29T08:24:45.668Z,85.76
2022-11-29T08:25:19.022Z,85.64
2022-11-29T08:26:02.954Z,85.68
2022-11-29T08:26:36.353Z,85.75
2022-11-29T08:27:09.776Z,85.55
2022-11-29T08:27:43.017Z,85.75
2022-11-29T08:28:16.407Z,85.59
2022-11-29T08:28:52.361Z,85.60
2022-11-29T08:29:25.701Z,85.29
2022-11-29T08:29:59.221Z,85.49
2022-11-29T08:30:32.508Z,85.53
2022-11-29T08:31:08.342Z,85.43
2022-11-29T08:31:41.995Z,85.65
2022-11-29T08:32:15.356Z,85.40
2022-11-29T08:32:51.596Z,85.42
2022-11-29T08:33:25.250Z,85.36
2022-11-29T08:33:58.509Z,85.21
2022-11-29T08:34:32.083Z,85.42
2022-11-29T08:35:05.721Z,85.40
2022-11-29T08:35:40.141Z,85.52
2022-11-29T08:36:19.137Z,85.62
2022-11-29T08:36:55.614Z,85.19
2022-11-29T08:37:28.889Z,85.29
2022-11-29T08:38:04.584Z,85.15
2022-11-29T08:38:38.039Z,85.06
2022-11-29T08:39:11.353Z,85.02
2022-11-29T08:39:44.671Z,85.00
2022-11-29T08:40:18.552Z,85.16
2022-11-29T08:40:51.789Z,85.23
2022-11-29T08:41:27.584Z,85.37
2022-11-29T08:42:01.031Z,85.34
2022-11-29T08:42:34.675Z,85.14
2022-11-29T08:43:08.054Z,85.32
2022-11-29T08:43:42.316Z,85.21
2022-11-29T08:44:15.697Z,85.02
2022-11-29T08:44:49.126Z,85.13
2022-11-29T08:45:22.574Z,85.22
2022-11-29T08:46:00.258Z,84.90
2022-11-29T08:46:52.833Z,84.98
2022-11-29T08:47:38.557Z,85.04
2022-11-29T08:48:14.091Z,85.04
2022-11-29T08:48:48.454Z,85.12
2022-11-29T08:49:21.712Z,85.31
2022-11-29T08:50:04.223Z,85.27
2022-11-29T08:50:37.471Z,85.01
2022-11-29T08:51:10.773Z,85.00
2022-11-29T08:51:44.810Z,85.15
2022-11-29T08:52:36.838Z,85.21
2022-11-29T08:53:28.538Z,85.24
2022-11-29T08:54:01.949Z,85.06
2022-11-29T08:54:35.230Z,85.24
2022-11-29T08:55:09.092Z,85.10
2022-11-29T08:55:46.815Z,85.07
2022-11-29T08:57:10.035Z,84.91
2022-11-29T08:57:39.138Z,84.89
2022-11-29T08:58:10.316Z,85.08
2022-11-29T08:58:43.586Z,84.92
2022-11-29T08:59:16.805Z,85.13
2022-11-29T08:59:49.990Z,85.16
2022-11-29T09:00:23.604Z,85.16
2022-11-29T09:00:57.247Z,85.18
2022-11-29T09:01:30.919Z,85.20
2022-11-29T09:02:04.353Z,85.29
2022-11-29T09:02:39.569Z,85.11
2022-11-29T09:03:33.120Z,85.11
2022-11-29T09:04:07.995Z,85.25
2022-11-29T09:04:41.233Z,85.20
2022-11-29T09:05:15.302Z,85.03
2022-11-29T09:05:48.587Z,85.19
2022-11-29T09:06:21.816Z,85.11
2022-11-29T09:06:55.023Z,85.17
2022-11-29T09:07:28.372Z,84.96
2022-11-29T09:08:01.881Z,85.08
2022-11-29T09:08:35.383Z,85.13
2022-11-29T09:09:08.878Z,84.71
2022-11-29T09:09:42.370Z,84.81
2022-11-29T09:10:15.619Z,84.72
2022-11-29T09:10:51.789Z,84.80
2022-11-29T09:11:26.995Z,84.27
2022-11-29T09:12:00.536Z,84.59
2022-11-29T09:12:39.051Z,84.58
2022-11-29T09:13:12.610Z,84.64
2022-11-29T09:13:47.994Z,84.66
2022-11-29T09:14:23.080Z,84.64
2022-11-29T09:14:56.347Z,84.54
2022-11-29T09:15:29.595Z,84.61
2022-11-29T09:16:07.922Z,84.59
2022-11-29T09:16:41.253Z,84.48
2022-11-29T09:17:14.532Z,84.61